createdAt,value
2017-10-31T00:01:50.213Z,90.80
2017-10-31T00:04:18.460Z,90.90
2017-10-31T00:06:47.500Z,91.00
2017-10-31T00:09:15.736Z,90.90
2017-10-31T00:11:44.787Z,90.90
2017-10-31T00:14:13.046Z,90.90
2017-10-31T00:16:41.303Z,91.10
2017-10-31T00:19:10.326Z,91.10
2017-10-31T00:21:38.570Z,91.10
2017-10-31T00:24:06.827Z,91.00
2017-10-31T00:26:35.184Z,91.00
2017-10-31T00:29:03.455Z,91.10
2017-10-31T00:31:31.725Z,91.20
2017-10-31T00:33:59.979Z,91.30
2017-10-31T00:36:29.030Z,91.40
2017-10-31T00:38:57.289Z,91.40
2017-10-31T00:41:25.582Z,91.50
2017-10-31T00:43:53.848Z,91.60
2017-10-31T00:46:22.098Z,91.70
2017-10-31T00:48:51.118Z,92.00
2017-10-31T00:51:19.363Z,92.00
2017-10-31T00:53:47.709Z,92.10
2017-10-31T00:56:15.945Z,92.20
2017-10-31T00:58:44.210Z,92.10
2017-10-31T01:01:13.263Z,92.70
2017-10-31T01:03:41.526Z,92.40
2017-10-31T01:06:09.805Z,92.40
2017-10-31T01:08:38.062Z,92.40
2017-10-31T01:11:07.089Z,92.40
2017-10-31T01:13:35.360Z,92.40
2017-10-31T01:16:03.599Z,92.50
2017-10-31T01:18:31.958Z,92.50
2017-10-31T01:21:00.196Z,92.60
2017-10-31T01:23:29.217Z,92.60
2017-10-31T01:25:57.484Z,92.70
2017-10-31T01:28:26.612Z,92.60
2017-10-31T01:30:54.856Z,92.70
2017-10-31T01:33:23.122Z,92.60
2017-10-31T01:35:52.167Z,92.70
2017-10-31T01:38:20.421Z,92.70
2017-10-31T01:40:48.670Z,93.10
2017-10-31T01:43:16.936Z,92.70
2017-10-31T01:45:45.278Z,93.00
2017-10-31T01:48:13.558Z,92.80
2017-10-31T01:50:41.798Z,92.90
2017-10-31T01:53:10.831Z,92.80
2017-10-31T01:55:39.144Z,92.80
2017-10-31T01:58:07.399Z,92.90
2017-10-31T02:00:35.656Z,92.90
2017-10-31T02:03:03.924Z,93.10
2017-10-31T02:05:32.936Z,93.30
2017-10-31T02:08:01.200Z,93.30
2017-10-31T02:10:29.451Z,93.10
2017-10-31T02:12:57.733Z,93.00
2017-10-31T02:15:26.003Z,93.10
2017-10-31T02:17:54.268Z,93.00
2017-10-31T02:20:22.528Z,93.00
2017-10-31T02:22:50.779Z,93.10
2017-10-31T02:25:19.791Z,93.10
2017-10-31T02:27:48.055Z,93.10
2017-10-31T02:30:17.096Z,93.70
2017-10-31T02:32:45.356Z,93.30
2017-10-31T02:35:13.627Z,93.30
2017-10-31T02:37:42.766Z,93.40
2017-10-31T02:40:11.035Z,93.40
2017-10-31T02:42:39.299Z,93.30
2017-10-31T02:45:07.552Z,93.30
2017-10-31T02:47:36.612Z,93.40
2017-10-31T02:50:04.849Z,93.40
2017-10-31T02:52:33.115Z,93.50
2017-10-31T02:55:02.123Z,93.50
2017-10-31T02:57:30.387Z,93.50
2017-10-31T03:00:00.299Z,93.90
2017-10-31T03:02:28.564Z,93.60
2017-10-31T03:04:56.814Z,93.90
2017-10-31T03:07:25.088Z,93.70
2017-10-31T03:09:53.356Z,93.70
2017-10-31T03:12:21.602Z,93.90
2017-10-31T03:14:49.857Z,93.80
2017-10-31T03:17:18.104Z,93.90
2017-10-31T03:19:46.363Z,93.70
2017-10-31T03:22:15.412Z,93.50
2017-10-31T03:24:43.669Z,93.60
2017-10-31T03:27:11.906Z,93.40
2017-10-31T03:29:40.172Z,93.40
2017-10-31T03:32:08.492Z,93.20
2017-10-31T03:34:37.522Z,93.50
2017-10-31T03:37:05.801Z,93.50
2017-10-31T03:39:34.085Z,93.60
2017-10-31T03:42:02.370Z,93.70
2017-10-31T03:44:30.617Z,93.90
2017-10-31T03:46:58.895Z,93.90
2017-10-31T03:49:27.914Z,94.00
2017-10-31T03:51:56.160Z,94.00
2017-10-31T03:54:24.418Z,94.10
2017-10-31T03:56:52.783Z,94.30
2017-10-31T03:59:21.037Z,94.40
2017-10-31T04:01:49.332Z,94.40
2017-10-31T04:04:17.610Z,94.50
2017-10-31T04:06:45.851Z,94.60
2017-10-31T04:09:14.884Z,94.70
2017-10-31T04:11:43.129Z,94.70
2017-10-31T04:14:12.207Z,94.40
2017-10-31T04:16:40.453Z,94.40
2017-10-31T04:19:08.711Z,94.50
2017-10-31T04:21:36.977Z,94.70
2017-10-31T04:24:05.999Z,94.50
2017-10-31T04:26:34.238Z,94.50
2017-10-31T04:29:03.293Z,94.40
2017-10-31T04:31:31.546Z,94.40
2017-10-31T04:33:59.812Z,94.60
2017-10-31T04:36:28.823Z,94.10
2017-10-31T04:38:57.082Z,94.10
2017-10-31T04:41:25.971Z,94.10
2017-10-31T04:43:54.274Z,94.30
2017-10-31T04:46:22.511Z,94.60
2017-10-31T04:48:51.683Z,94.70
2017-10-31T04:51:19.939Z,94.60
2017-10-31T04:53:48.243Z,94.50
2017-10-31T04:56:16.520Z,94.60
2017-10-31T04:58:44.802Z,94.60
2017-10-31T05:01:13.045Z,94.60
2017-10-31T05:03:42.068Z,94.60
2017-10-31T05:06:10.326Z,94.60
2017-10-31T05:08:39.095Z,94.50
2017-10-31T05:11:07.339Z,94.60
2017-10-31T05:13:35.599Z,94.20
2017-10-31T05:16:03.843Z,93.90
2017-10-31T05:18:32.099Z,93.80
2017-10-31T05:21:00.337Z,93.80
2017-10-31T05:23:28.595Z,94.00
2017-10-31T05:25:57.601Z,94.10
2017-10-31T05:28:26.623Z,94.10
2017-10-31T05:30:54.916Z,94.10
2017-10-31T05:33:23.182Z,94.00
2017-10-31T05:35:51.431Z,93.90
2017-10-31T05:38:20.456Z,94.10
2017-10-31T05:40:48.750Z,94.00
2017-10-31T05:43:17.039Z,94.10
2017-10-31T05:45:45.288Z,94.10
2017-10-31T05:48:14.308Z,94.20
2017-10-31T05:50:42.547Z,94.20
2017-10-31T05:53:10.802Z,94.20
2017-10-31T05:55:39.048Z,94.50
2017-10-31T05:58:07.306Z,94.10
2017-10-31T06:00:36.314Z,94.10
2017-10-31T06:03:04.562Z,94.10
2017-10-31T06:05:32.899Z,94.00
2017-10-31T06:08:01.133Z,93.90
2017-10-31T06:10:29.463Z,93.90
2017-10-31T06:12:57.727Z,94.10
2017-10-31T06:15:26.050Z,93.60
2017-10-31T06:17:54.298Z,93.60
2017-10-31T06:20:22.559Z,93.50
2017-10-31T06:22:56.587Z,93.50
2017-10-31T06:25:30.490Z,93.50
2017-10-31T06:28:04.484Z,93.50
2017-10-31T06:33:35.475Z,92.70
2017-10-31T06:36:03.734Z,92.50
2017-10-31T06:38:31.988Z,92.60
2017-10-31T06:41:00.232Z,92.80
2017-10-31T06:43:28.494Z,93.00
2017-10-31T06:45:56.749Z,93.20
2017-10-31T06:48:25.775Z,93.60
2017-10-31T06:50:54.074Z,93.60
2017-10-31T06:53:22.319Z,93.80
2017-10-31T06:55:51.476Z,94.10
2017-10-31T06:58:19.749Z,94.10
2017-10-31T07:00:48.011Z,94.30
2017-10-31T07:03:16.257Z,94.40
2017-10-31T07:05:45.284Z,94.40
2017-10-31T07:08:13.537Z,94.40
2017-10-31T07:10:42.561Z,94.30
2017-10-31T07:13:10.806Z,94.30
2017-10-31T07:15:39.068Z,94.30
2017-10-31T07:18:07.869Z,94.10
2017-10-31T07:20:36.184Z,93.50
2017-10-31T07:23:04.515Z,92.80
2017-10-31T07:25:32.780Z,92.70
2017-10-31T07:28:01.019Z,92.50
2017-10-31T07:30:30.069Z,92.60
2017-10-31T07:32:58.369Z,92.60
2017-10-31T07:35:26.961Z,92.70
2017-10-31T07:37:55.485Z,92.60
2017-10-31T07:40:24.752Z,92.80
2017-10-31T07:42:53.342Z,92.80
2017-10-31T07:45:21.828Z,92.70
2017-10-31T07:47:50.935Z,92.80
2017-10-31T07:50:19.187Z,92.80
2017-10-31T07:52:47.459Z,94.00
2017-10-31T07:55:15.729Z,95.10
2017-10-31T07:57:44.160Z,95.10
2017-10-31T08:00:13.198Z,93.10
2017-10-31T08:02:41.455Z,93.20
2017-10-31T08:05:09.748Z,93.00
2017-10-31T08:07:38.755Z,93.10
2017-10-31T08:10:07.030Z,93.10
2017-10-31T08:12:36.101Z,93.20
2017-10-31T08:15:04.334Z,93.20
2017-10-31T08:17:32.625Z,93.60
2017-10-31T08:20:00.883Z,93.70
2017-10-31T08:22:29.208Z,93.80
2017-10-31T08:24:57.512Z,94.20
2017-10-31T08:27:26.543Z,91.80
2017-10-31T08:29:54.804Z,91.80
2017-10-31T08:32:23.850Z,90.50
2017-10-31T08:34:52.561Z,90.50
2017-10-31T08:37:20.812Z,90.50
2017-10-31T08:39:49.076Z,90.30
2017-10-31T08:42:17.330Z,90.30
2017-10-31T08:44:45.602Z,90.20
2017-10-31T08:47:13.850Z,90.40
2017-10-31T08:49:42.130Z,90.50
2017-10-31T08:52:10.436Z,91.00
2017-10-31T08:54:38.787Z,91.10
2017-10-31T08:57:07.071Z,91.00
2017-10-31T08:59:35.344Z,91.30
2017-10-31T09:02:03.644Z,91.50
2017-10-31T09:04:31.962Z,91.60
2017-10-31T09:07:00.980Z,92.00
2017-10-31T09:09:29.271Z,91.60
2017-10-31T09:11:57.542Z,91.60
2017-10-31T09:14:25.803Z,91.70
2017-10-31T09:16:54.833Z,92.00
2017-10-31T09:19:23.095Z,92.00
2017-10-31T09:21:52.108Z,91.80
2017-10-31T09:24:20.376Z,91.80
2017-10-31T09:26:48.620Z,91.80
2017-10-31T09:29:16.891Z,91.60
2017-10-31T09:31:45.147Z,91.70
2017-10-31T09:34:13.411Z,91.70
2017-10-31T09:36:41.664Z,92.10
2017-10-31T09:39:10.699Z,91.50
2017-10-31T09:41:38.966Z,91.50
2017-10-31T09:44:08.000Z,91.80
2017-10-31T09:46:36.276Z,91.80
2017-10-31T09:49:04.530Z,91.70
2017-10-31T09:51:32.804Z,91.70
2017-10-31T09:54:01.814Z,91.80
2017-10-31T09:56:30.089Z,91.80
2017-10-31T09:58:58.383Z,91.50
2017-10-31T10:01:26.648Z,91.50
2017-10-31T10:03:54.895Z,91.60
2017-10-31T10:06:23.163Z,91.70
2017-10-31T10:08:52.074Z,91.20
2017-10-31T10:11:20.346Z,90.60
2017-10-31T10:13:48.613Z,90.10
2017-10-31T10:16:16.889Z,89.60
2017-10-31T10:18:45.131Z,88.90
2017-10-31T10:21:13.403Z,87.50
2017-10-31T10:23:41.666Z,87.40
2017-10-31T10:26:10.700Z,87.20
2017-10-31T10:28:38.950Z,87.20
2017-10-31T10:31:07.995Z,86.10
2017-10-31T10:33:36.243Z,86.10
2017-10-31T10:36:04.522Z,86.10
2017-10-31T10:38:32.794Z,86.30
2017-10-31T10:41:01.100Z,85.90
2017-10-31T10:43:29.384Z,85.80
2017-10-31T10:45:57.652Z,85.30
2017-10-31T10:48:25.908Z,85.30
2017-10-31T10:50:54.943Z,86.90
2017-10-31T10:53:23.242Z,86.10
2017-10-31T10:55:51.506Z,85.10
2017-10-31T10:58:19.754Z,85.90
2017-10-31T11:00:48.795Z,84.40
2017-10-31T11:03:20.641Z,84.30
2017-10-31T11:05:48.928Z,84.40
2017-10-31T11:08:17.185Z,83.80
2017-10-31T11:10:46.215Z,83.60
2017-10-31T11:13:14.462Z,83.60
2017-10-31T11:15:43.494Z,83.30
2017-10-31T11:18:11.766Z,83.30
2017-10-31T11:20:40.056Z,83.30
2017-10-31T11:23:08.303Z,83.10
2017-10-31T11:25:37.342Z,82.80
2017-10-31T11:28:05.647Z,82.80
2017-10-31T11:30:33.921Z,81.90
2017-10-31T11:33:02.215Z,82.80
2017-10-31T11:35:30.702Z,82.10
2017-10-31T11:37:59.021Z,81.00
2017-10-31T11:40:28.066Z,78.90
2017-10-31T11:42:56.352Z,78.90
2017-10-31T11:45:24.621Z,78.00
2017-10-31T11:47:53.088Z,78.00
2017-10-31T11:50:22.125Z,78.10
2017-10-31T11:52:50.384Z,78.00
2017-10-31T11:55:18.663Z,77.90
2017-10-31T11:57:46.915Z,77.20
2017-10-31T12:00:15.959Z,76.70
2017-10-31T12:02:44.206Z,76.70
2017-10-31T12:05:13.252Z,76.60
2017-10-31T12:07:41.504Z,76.50
2017-10-31T12:10:09.784Z,75.50
2017-10-31T12:12:38.054Z,73.90
2017-10-31T12:15:06.301Z,72.60
2017-10-31T12:17:35.338Z,71.90
2017-10-31T12:20:03.606Z,71.90
2017-10-31T12:22:32.615Z,71.40
2017-10-31T12:25:00.874Z,71.30
2017-10-31T12:27:29.155Z,71.00
2017-10-31T12:29:58.186Z,70.30
2017-10-31T12:32:26.475Z,70.30
2017-10-31T12:34:54.714Z,70.00
2017-10-31T12:37:23.754Z,70.80
2017-10-31T12:39:52.001Z,70.70
2017-10-31T12:42:21.031Z,70.00
2017-10-31T12:44:49.298Z,70.00
2017-10-31T12:47:17.631Z,70.50
2017-10-31T12:49:45.865Z,68.70
2017-10-31T12:52:14.155Z,68.90
2017-10-31T12:54:42.409Z,69.10
2017-10-31T12:57:11.447Z,69.70
2017-10-31T12:59:39.695Z,69.70
2017-10-31T13:02:07.974Z,71.20
2017-10-31T13:04:36.239Z,72.10
2017-10-31T13:07:06.032Z,71.70
2017-10-31T13:09:34.315Z,71.60
2017-10-31T13:12:02.579Z,71.30
2017-10-31T13:14:30.842Z,71.60
2017-10-31T13:16:59.699Z,72.10
2017-10-31T13:19:28.714Z,71.50
2017-10-31T13:21:57.030Z,71.40
2017-10-31T13:24:25.350Z,71.90
2017-10-31T13:26:53.710Z,72.00
2017-10-31T13:29:22.827Z,71.30
2017-10-31T13:31:52.628Z,72.10
2017-10-31T13:34:21.858Z,72.10
2017-10-31T13:36:52.491Z,71.50
2017-10-31T13:39:22.523Z,71.00
2017-10-31T13:41:51.591Z,70.90
2017-10-31T13:44:20.512Z,71.40
2017-10-31T13:46:50.324Z,71.50
2017-10-31T13:49:20.983Z,71.60
2017-10-31T13:51:50.152Z,71.50
2017-10-31T13:54:18.535Z,72.00
2017-10-31T13:56:46.888Z,72.60
2017-10-31T13:59:15.188Z,72.40
2017-10-31T14:01:43.805Z,72.80
2017-10-31T14:04:12.504Z,72.20
2017-10-31T14:06:42.530Z,71.60
2017-10-31T14:09:12.068Z,71.80
2017-10-31T14:11:43.000Z,72.00
2017-10-31T14:14:11.403Z,71.90
2017-10-31T14:16:39.645Z,72.50
2017-10-31T14:19:08.678Z,72.90
2017-10-31T14:21:36.982Z,72.80
2017-10-31T14:24:06.083Z,72.30
2017-10-31T14:26:34.345Z,72.30
2017-10-31T14:29:02.608Z,72.60
2017-10-31T14:31:30.875Z,72.80
2017-10-31T14:33:59.173Z,72.80
2017-10-31T14:36:27.464Z,73.40
2017-10-31T14:38:55.714Z,74.20
2017-10-31T14:41:24.765Z,73.10
2017-10-31T14:43:53.819Z,73.00
2017-10-31T14:46:22.091Z,72.80
2017-10-31T14:48:51.119Z,73.60
2017-10-31T14:51:19.415Z,73.50
2017-10-31T14:53:47.667Z,72.80
2017-10-31T14:56:16.019Z,72.90
2017-10-31T14:58:44.274Z,72.70
2017-10-31T15:01:12.574Z,72.60
2017-10-31T15:03:41.632Z,73.10
2017-10-31T15:06:09.899Z,72.30
2017-10-31T15:08:38.201Z,72.80
2017-10-31T15:11:06.470Z,72.80
2017-10-31T15:13:34.726Z,73.00
2017-10-31T15:16:03.008Z,73.30
2017-10-31T15:18:31.266Z,73.40
2017-10-31T15:21:00.315Z,73.60
2017-10-31T15:23:29.498Z,73.50
2017-10-31T15:25:57.899Z,73.60
2017-10-31T15:28:26.226Z,74.20
2017-10-31T15:30:54.575Z,73.80
2017-10-31T15:33:22.827Z,74.30
2017-10-31T15:35:51.103Z,73.60
2017-10-31T15:38:19.355Z,73.50
2017-10-31T15:40:48.392Z,73.60
2017-10-31T15:43:16.712Z,73.50
2017-10-31T15:45:45.002Z,74.20
2017-10-31T15:48:13.275Z,73.00
2017-10-31T15:50:41.574Z,72.90
2017-10-31T15:53:10.626Z,73.40
2017-10-31T15:55:39.148Z,73.30
2017-10-31T15:58:09.023Z,73.70
2017-10-31T16:00:37.278Z,73.60
2017-10-31T16:03:06.423Z,74.40
2017-10-31T16:05:34.675Z,74.40
2017-10-31T16:08:02.950Z,74.20
2017-10-31T16:10:31.195Z,74.60
2017-10-31T16:12:59.882Z,74.50
2017-10-31T16:15:28.121Z,74.40
2017-10-31T16:17:56.389Z,74.00
2017-10-31T16:20:24.646Z,73.80
2017-10-31T16:22:53.680Z,74.70
2017-10-31T16:25:21.974Z,74.60
2017-10-31T16:27:50.312Z,74.80
2017-10-31T16:30:18.580Z,75.30
2017-10-31T16:32:46.830Z,75.70
2017-10-31T16:35:15.074Z,75.70
2017-10-31T16:37:43.335Z,74.80
2017-10-31T16:40:11.578Z,75.10
2017-10-31T16:42:39.855Z,74.50
2017-10-31T16:45:08.110Z,74.80
2017-10-31T16:47:36.362Z,75.10
2017-10-31T16:50:04.605Z,75.20
2017-10-31T16:52:34.544Z,73.90
2017-10-31T16:55:03.552Z,74.00
2017-10-31T16:57:32.573Z,74.50
2017-10-31T17:00:00.835Z,74.50
2017-10-31T17:02:29.858Z,73.10
2017-10-31T17:04:58.112Z,73.00
2017-10-31T17:07:27.158Z,72.90
2017-10-31T17:09:55.420Z,72.90
2017-10-31T17:12:23.682Z,72.90
2017-10-31T17:14:51.968Z,73.10
2017-10-31T17:17:20.251Z,72.80
2017-10-31T17:19:48.519Z,73.40
2017-10-31T17:22:17.538Z,73.60
2017-10-31T17:24:45.801Z,73.60
2017-10-31T17:27:14.846Z,74.30
2017-10-31T17:29:43.095Z,74.30
2017-10-31T17:32:11.364Z,74.80
2017-10-31T17:34:40.373Z,74.90
2017-10-31T17:37:08.635Z,74.90
2017-10-31T17:39:37.676Z,74.90
2017-10-31T17:42:05.947Z,74.90
2017-10-31T17:44:34.696Z,75.50
2017-10-31T17:47:03.894Z,74.70
2017-10-31T17:52:07.240Z,74.90
2017-10-31T17:54:35.730Z,75.00
2017-10-31T17:57:04.006Z,74.90
2017-10-31T17:59:32.256Z,74.80
2017-10-31T18:02:00.524Z,74.60
2017-10-31T18:04:28.894Z,75.00
2017-10-31T18:06:57.140Z,75.70
2017-10-31T18:09:25.480Z,75.10
2017-10-31T18:11:54.490Z,74.70
2017-10-31T18:14:23.598Z,74.60
2017-10-31T18:16:52.750Z,75.10
2017-10-31T18:19:21.023Z,75.00
2017-10-31T18:21:49.285Z,75.00
2017-10-31T18:24:17.554Z,75.20
2017-10-31T18:26:45.802Z,75.30
2017-10-31T18:29:14.054Z,75.50
2017-10-31T18:31:42.298Z,75.20
2017-10-31T18:34:10.566Z,75.00
2017-10-31T18:36:38.814Z,75.00
2017-10-31T18:39:08.584Z,75.10
2017-10-31T18:41:36.827Z,75.00
2017-10-31T18:44:05.892Z,75.10
2017-10-31T18:46:34.139Z,74.40
2017-10-31T18:49:02.399Z,74.70
2017-10-31T18:51:31.406Z,75.40
2017-10-31T18:53:59.677Z,75.40
2017-10-31T18:56:28.696Z,74.80
2017-10-31T18:58:56.946Z,74.80
2017-10-31T19:01:25.971Z,75.70
2017-10-31T19:03:55.006Z,75.50
2017-10-31T19:06:23.747Z,75.50
2017-10-31T19:08:51.979Z,75.10
2017-10-31T19:11:20.239Z,75.00
2017-10-31T19:13:48.492Z,75.30
2017-10-31T19:16:17.506Z,76.40
2017-10-31T19:18:45.768Z,76.20
2017-10-31T19:21:14.786Z,76.60
2017-10-31T19:23:43.237Z,76.60
2017-10-31T19:26:11.482Z,76.80
2017-10-31T19:28:39.734Z,77.50
2017-10-31T19:31:08.010Z,77.70
2017-10-31T19:33:37.010Z,78.00
2017-10-31T19:36:05.282Z,78.00
2017-10-31T19:38:34.294Z,78.20
2017-10-31T19:41:02.551Z,78.20
2017-10-31T19:43:31.571Z,78.30
2017-10-31T19:45:59.839Z,78.30
2017-10-31T19:48:28.832Z,78.10
2017-10-31T19:50:57.875Z,77.60
2017-10-31T19:53:26.362Z,77.60
2017-10-31T19:55:54.629Z,77.80
2017-10-31T19:58:22.870Z,78.00
2017-10-31T20:00:51.298Z,78.10
2017-10-31T20:03:19.552Z,77.90
2017-10-31T20:05:48.061Z,78.10
2017-10-31T20:08:16.295Z,78.20
2017-10-31T20:10:45.315Z,78.70
2017-10-31T20:13:13.592Z,78.70
2017-10-31T20:15:41.853Z,78.50
2017-10-31T20:18:10.113Z,78.70
2017-10-31T20:20:39.872Z,78.60
2017-10-31T20:23:08.136Z,78.60
2017-10-31T20:25:37.147Z,78.00
2017-10-31T20:28:05.429Z,78.00
2017-10-31T20:30:33.692Z,77.90
2017-10-31T20:33:02.738Z,78.40
2017-10-31T20:35:30.984Z,78.30
2017-10-31T20:37:59.261Z,78.10
2017-10-31T20:40:28.263Z,78.20
2017-10-31T20:42:56.596Z,78.20
2017-10-31T20:45:24.889Z,78.60
2017-10-31T20:47:54.676Z,78.30
2017-10-31T20:50:22.943Z,78.30
2017-10-31T20:52:51.294Z,78.40
2017-10-31T20:55:19.479Z,78.30
2017-10-31T20:57:48.546Z,78.40
2017-10-31T21:00:16.797Z,78.40
2017-10-31T21:02:45.050Z,78.30
2017-10-31T21:05:13.310Z,78.30
2017-10-31T21:07:41.601Z,78.10
2017-10-31T21:10:10.647Z,79.00
2017-10-31T21:12:38.925Z,79.00
2017-10-31T21:15:07.167Z,79.00
2017-10-31T21:17:36.199Z,78.70
2017-10-31T21:20:04.450Z,78.70
2017-10-31T21:22:33.487Z,78.80
2017-10-31T21:25:01.731Z,78.80
2017-10-31T21:27:30.001Z,78.80
2017-10-31T21:29:59.034Z,79.30
2017-10-31T21:32:27.529Z,79.30
2017-10-31T21:34:55.778Z,79.50
2017-10-31T21:37:24.054Z,79.50
2017-10-31T21:39:52.320Z,79.30
2017-10-31T21:42:21.360Z,79.80
2017-10-31T21:44:49.600Z,79.80
2017-10-31T21:47:18.652Z,80.80
2017-10-31T21:49:46.899Z,80.80
2017-10-31T21:52:15.164Z,80.90
2017-10-31T21:54:43.455Z,81.00
2017-10-31T21:57:11.724Z,81.50
2017-10-31T21:59:40.859Z,82.40
2017-10-31T22:02:09.121Z,82.30
2017-10-31T22:04:37.366Z,82.30
2017-10-31T22:07:05.613Z,82.70
2017-10-31T22:09:33.884Z,83.10
2017-10-31T22:12:02.146Z,83.20
2017-10-31T22:14:30.410Z,82.00
2017-10-31T22:16:59.425Z,81.90
2017-10-31T22:19:27.703Z,81.90
2017-10-31T22:21:55.964Z,82.00
2017-10-31T22:26:59.539Z,82.40
2017-10-31T22:29:27.819Z,82.30
2017-10-31T22:31:56.078Z,82.60
2017-10-31T22:34:24.423Z,82.90
2017-10-31T22:36:52.683Z,84.30
2017-10-31T22:39:20.949Z,84.30
2017-10-31T22:41:49.188Z,84.40
2017-10-31T22:46:52.051Z,85.00
2017-10-31T22:49:20.311Z,85.10
2017-10-31T22:51:48.575Z,85.40
2017-10-31T22:54:16.883Z,85.40
2017-10-31T22:56:45.138Z,85.80
2017-10-31T22:59:13.402Z,85.70
2017-10-31T23:01:41.647Z,86.10
2017-10-31T23:04:11.441Z,86.10
2017-10-31T23:06:39.694Z,86.10
2017-10-31T23:09:07.962Z,86.20
2017-10-31T23:11:36.208Z,86.40
2017-10-31T23:14:04.493Z,86.30
2017-10-31T23:16:32.746Z,86.30
2017-10-31T23:19:01.059Z,86.80
2017-10-31T23:21:30.106Z,86.90
2017-10-31T23:23:58.374Z,86.80
2017-10-31T23:26:26.645Z,86.90
2017-10-31T23:28:55.664Z,87.00
2017-10-31T23:31:23.968Z,86.90
2017-10-31T23:33:52.230Z,86.80
2017-10-31T23:36:20.633Z,86.90
2017-10-31T23:38:48.895Z,87.00
2017-10-31T23:41:17.183Z,87.10
2017-10-31T23:43:45.480Z,86.70
2017-10-31T23:46:13.779Z,87.10
2017-10-31T23:48:42.135Z,87.10
2017-10-31T23:51:10.381Z,86.90
2017-10-31T23:53:39.394Z,87.30
2017-10-31T23:56:07.634Z,87.10
2017-10-31T23:58:35.913Z,87.30
